createdAt,value
2023-05-13T00:01:41.957Z,14.55
2023-05-13T00:04:08.265Z,14.46
2023-05-13T00:06:34.786Z,14.45
2023-05-13T00:09:01.171Z,14.43
2023-05-13T00:11:27.464Z,14.45
2023-05-13T00:13:53.770Z,14.41
2023-05-13T00:16:20.178Z,14.43
2023-05-13T00:18:46.534Z,14.54
2023-05-13T00:21:12.843Z,14.46
2023-05-13T00:23:39.212Z,14.33
2023-05-13T00:26:05.513Z,14.41
2023-05-13T00:28:31.848Z,14.38
2023-05-13T00:30:58.192Z,14.33
2023-05-13T00:33:24.508Z,14.34
2023-05-13T00:35:50.814Z,14.21
2023-05-13T00:38:17.147Z,14.22
2023-05-13T00:40:43.468Z,14.23
2023-05-13T00:43:09.770Z,14.25
2023-05-13T00:45:36.088Z,14.32
2023-05-13T00:48:02.454Z,13.95
2023-05-13T00:50:28.775Z,13.92
2023-05-13T00:52:55.121Z,14.23
2023-05-13T00:55:21.416Z,14.15
2023-05-13T00:57:47.717Z,14.20
2023-05-13T01:00:14.060Z,14.12
2023-05-13T01:02:40.569Z,14.08
2023-05-13T01:05:06.905Z,14.17
2023-05-13T01:07:33.227Z,13.98
2023-05-13T01:09:59.556Z,14.09
2023-05-13T01:12:25.878Z,13.98
2023-05-13T01:14:52.200Z,14.07
2023-05-13T01:17:18.500Z,13.85
2023-05-13T01:19:44.781Z,13.87
2023-05-13T01:22:11.118Z,13.73
2023-05-13T01:24:37.453Z,13.43
2023-05-13T01:27:03.815Z,13.70
2023-05-13T01:29:30.167Z,13.58
2023-05-13T01:31:56.458Z,13.65
2023-05-13T01:34:22.766Z,13.40
2023-05-13T01:36:49.081Z,13.50
2023-05-13T01:39:15.392Z,13.09
2023-05-13T01:41:41.690Z,13.42
2023-05-13T01:44:08.021Z,13.30
2023-05-13T01:46:34.331Z,12.96
2023-05-13T01:49:00.694Z,13.11
2023-05-13T01:51:27.018Z,13.12
2023-05-13T01:53:53.320Z,13.20
2023-05-13T01:56:19.614Z,12.81
2023-05-13T01:58:46.013Z,12.96
2023-05-13T02:01:12.308Z,12.97
2023-05-13T02:03:38.664Z,12.87
2023-05-13T02:06:05.023Z,12.93
2023-05-13T02:08:31.320Z,12.81
2023-05-13T02:10:57.634Z,12.39
2023-05-13T02:13:23.957Z,12.58
2023-05-13T02:15:50.258Z,12.89
2023-05-13T02:18:16.567Z,12.56
2023-05-13T02:20:42.888Z,12.95
2023-05-13T02:23:09.187Z,12.94
2023-05-13T02:25:35.493Z,12.77
2023-05-13T02:28:01.831Z,12.87
2023-05-13T02:30:28.130Z,12.78
2023-05-13T02:32:54.477Z,12.70
2023-05-13T02:35:20.810Z,12.66
2023-05-13T02:37:47.113Z,12.87
2023-05-13T02:40:13.407Z,12.83
2023-05-13T02:42:39.734Z,12.65
2023-05-13T02:45:06.180Z,12.91
2023-05-13T02:47:32.499Z,12.60
2023-05-13T02:49:58.841Z,12.46
2023-05-13T02:52:25.132Z,12.63
2023-05-13T02:54:51.472Z,12.76
2023-05-13T02:57:17.923Z,12.74
2023-05-13T02:59:44.215Z,12.89
2023-05-13T03:02:10.538Z,12.70
2023-05-13T03:04:36.927Z,12.87
2023-05-13T03:07:03.238Z,12.78
2023-05-13T03:09:29.529Z,12.65
2023-05-13T03:11:55.869Z,12.62
2023-05-13T03:14:22.167Z,12.87
2023-05-13T03:16:48.469Z,12.73
2023-05-13T03:19:14.803Z,12.76
2023-05-13T03:21:41.183Z,12.75
2023-05-13T03:24:07.510Z,12.75
2023-05-13T03:26:33.826Z,12.81
2023-05-13T03:29:00.134Z,12.84
2023-05-13T03:31:26.481Z,12.93
2023-05-13T03:33:52.815Z,12.74
2023-05-13T03:36:19.118Z,12.89
2023-05-13T03:38:45.401Z,12.74
2023-05-13T03:41:11.722Z,13.00
2023-05-13T03:43:38.022Z,12.74
2023-05-13T03:46:04.328Z,12.41
2023-05-13T03:48:30.656Z,12.92
2023-05-13T03:50:56.955Z,12.76
2023-05-13T03:53:23.258Z,12.91
2023-05-13T03:55:49.580Z,12.81
2023-05-13T03:58:15.871Z,12.69
2023-05-13T04:00:42.182Z,12.72
2023-05-13T04:03:08.551Z,12.83
2023-05-13T04:05:34.910Z,12.90
2023-05-13T04:08:01.274Z,13.10
2023-05-13T04:10:27.637Z,13.06
2023-05-13T04:12:53.966Z,12.94
2023-05-13T04:15:20.264Z,13.05
2023-05-13T04:17:46.632Z,12.99
2023-05-13T04:20:12.984Z,13.14
2023-05-13T04:22:39.274Z,13.05
2023-05-13T04:25:05.602Z,13.08
2023-05-13T04:27:31.897Z,13.03
2023-05-13T04:29:58.198Z,13.11
2023-05-13T04:32:24.575Z,13.10
2023-05-13T04:34:50.921Z,12.85
2023-05-13T04:37:17.218Z,12.96
2023-05-13T04:39:43.552Z,12.87
2023-05-13T04:42:09.851Z,12.75
2023-05-13T04:44:36.170Z,12.97
2023-05-13T04:47:02.479Z,12.91
2023-05-13T04:49:28.786Z,13.16
2023-05-13T04:51:55.375Z,13.18
2023-05-13T04:54:22.192Z,13.22
2023-05-13T04:56:48.511Z,13.30
2023-05-13T04:59:14.814Z,13.20
2023-05-13T05:01:41.184Z,13.23
2023-05-13T05:04:07.538Z,13.17
2023-05-13T05:06:33.874Z,12.49
2023-05-13T05:09:00.219Z,12.64
2023-05-13T05:11:26.557Z,12.42
2023-05-13T05:13:52.876Z,12.56
2023-05-13T05:16:19.226Z,12.93
2023-05-13T05:18:45.601Z,12.98
2023-05-13T05:21:11.948Z,13.03
2023-05-13T05:23:38.274Z,13.05
2023-05-13T05:26:11.608Z,13.08
2023-05-13T05:28:38.626Z,13.03
2023-05-13T05:31:04.998Z,13.16
2023-05-13T05:33:31.326Z,13.21
2023-05-13T05:35:57.636Z,13.05
2023-05-13T05:38:23.929Z,13.18
2023-05-13T05:40:50.216Z,13.18
2023-05-13T05:43:16.553Z,13.21
2023-05-13T05:45:42.892Z,13.05
2023-05-13T05:48:09.375Z,13.19
2023-05-13T05:50:35.681Z,13.16
2023-05-13T05:53:01.961Z,13.23
2023-05-13T05:55:28.252Z,13.16
2023-05-13T05:57:54.546Z,13.35
2023-05-13T06:00:20.967Z,13.31
2023-05-13T06:02:47.554Z,13.34
2023-05-13T06:05:13.950Z,13.32
2023-05-13T06:07:40.252Z,13.38
2023-05-13T06:10:08.201Z,13.60
2023-05-13T06:12:34.691Z,13.55
2023-05-13T06:15:00.984Z,13.35
2023-05-13T06:17:27.395Z,13.40
2023-05-13T06:19:53.759Z,13.59
2023-05-13T06:22:20.052Z,13.63
2023-05-13T06:24:46.345Z,13.50
2023-05-13T06:27:12.807Z,13.53
2023-05-13T06:29:39.127Z,13.52
2023-05-13T06:32:05.556Z,13.61
2023-05-13T06:34:31.897Z,13.67
2023-05-13T06:36:58.197Z,13.54
2023-05-13T06:39:24.674Z,13.84
2023-05-13T06:41:50.993Z,13.66
2023-05-13T06:44:17.291Z,13.95
2023-05-13T06:46:43.665Z,13.92
2023-05-13T06:49:09.987Z,13.96
2023-05-13T06:51:36.282Z,13.41
2023-05-13T06:54:02.587Z,13.70
2023-05-13T06:56:28.913Z,14.15
2023-05-13T06:58:55.214Z,14.07
2023-05-13T07:01:21.553Z,13.79
2023-05-13T07:03:48.021Z,14.27
2023-05-13T07:06:14.407Z,14.34
2023-05-13T07:08:40.788Z,14.33
2023-05-13T07:11:07.128Z,14.50
2023-05-13T07:13:33.446Z,14.25
2023-05-13T07:15:59.801Z,14.11
2023-05-13T07:18:26.360Z,14.30
2023-05-13T07:20:52.697Z,14.46
2023-05-13T07:23:18.985Z,14.16
2023-05-13T07:25:45.345Z,14.43
2023-05-13T07:28:11.672Z,14.54
2023-05-13T07:30:38.012Z,14.42
2023-05-13T07:33:04.395Z,14.49
2023-05-13T07:35:30.752Z,14.65
2023-05-13T07:37:57.058Z,14.67
2023-05-13T07:40:23.506Z,14.20
2023-05-13T07:42:49.932Z,14.42
2023-05-13T07:45:16.317Z,14.13
2023-05-13T07:47:44.604Z,14.18
2023-05-13T07:50:11.116Z,14.84
2023-05-13T07:52:37.415Z,14.84
2023-05-13T07:55:03.715Z,14.95
2023-05-13T07:57:30.024Z,14.28
2023-05-13T07:59:56.331Z,14.67
2023-05-13T08:02:22.696Z,14.56
2023-05-13T08:04:49.121Z,14.77
2023-05-13T08:07:15.455Z,14.92
2023-05-13T08:09:41.792Z,14.74
2023-05-13T08:12:08.107Z,14.74
2023-05-13T08:14:34.410Z,14.67
2023-05-13T08:17:00.723Z,14.81
2023-05-13T08:19:27.015Z,14.94
2023-05-13T08:21:53.312Z,14.85
2023-05-13T08:24:19.637Z,14.84
2023-05-13T08:26:45.939Z,14.88
2023-05-13T08:29:12.256Z,15.05
2023-05-13T08:31:38.705Z,15.23
2023-05-13T08:34:05.075Z,15.53
2023-05-13T08:36:31.369Z,15.68
2023-05-13T08:38:57.694Z,15.47
2023-05-13T08:41:23.983Z,15.58
2023-05-13T08:43:50.279Z,15.33
2023-05-13T08:46:16.714Z,15.55
2023-05-13T08:48:43.193Z,15.45
2023-05-13T08:51:09.502Z,15.57
2023-05-13T08:53:35.813Z,15.61
2023-05-13T08:56:02.117Z,15.74
2023-05-13T08:58:28.416Z,15.56
2023-05-13T09:00:54.800Z,15.76
2023-05-13T09:03:21.146Z,15.89
2023-05-13T09:05:47.448Z,16.32
2023-05-13T09:08:13.821Z,15.92
2023-05-13T09:10:40.119Z,16.26
2023-05-13T09:13:06.417Z,16.32
2023-05-13T09:15:32.752Z,16.36
2023-05-13T09:17:59.353Z,16.72
2023-05-13T09:20:25.779Z,17.27
2023-05-13T09:22:52.106Z,17.63
2023-05-13T09:25:18.410Z,17.66
2023-05-13T09:27:44.734Z,17.49
2023-05-13T09:30:11.047Z,17.08
2023-05-13T09:32:37.415Z,17.11
2023-05-13T09:35:03.727Z,16.77
2023-05-13T09:37:30.091Z,17.01
2023-05-13T09:39:56.382Z,17.08
2023-05-13T09:42:22.670Z,17.25
2023-05-13T09:44:49.019Z,17.35
2023-05-13T09:47:15.552Z,17.76
2023-05-13T09:49:41.934Z,17.79
2023-05-13T09:52:08.254Z,17.92
2023-05-13T09:54:34.559Z,18.50
2023-05-13T09:57:00.850Z,18.15
2023-05-13T09:59:27.222Z,18.41
2023-05-13T10:01:53.907Z,17.84
2023-05-13T10:04:20.346Z,18.15
2023-05-13T10:06:46.698Z,18.30
2023-05-13T10:09:13.214Z,18.04
2023-05-13T10:11:39.552Z,17.90
2023-05-13T10:14:05.866Z,17.86
2023-05-13T10:16:32.237Z,18.61
2023-05-13T10:18:58.700Z,18.32
2023-05-13T10:21:25.122Z,18.05
2023-05-13T10:23:51.437Z,18.13
2023-05-13T10:26:17.740Z,17.87
2023-05-13T10:28:44.059Z,17.85
2023-05-13T10:31:10.357Z,17.97
2023-05-13T10:33:36.671Z,17.84
2023-05-13T10:36:03.014Z,17.69
2023-05-13T10:38:29.327Z,17.96
2023-05-13T10:40:55.656Z,18.06
2023-05-13T10:43:22.060Z,18.20
2023-05-13T10:45:48.449Z,17.95
2023-05-13T10:48:14.981Z,17.25
2023-05-13T10:50:41.441Z,17.02
2023-05-13T10:53:07.726Z,16.98
2023-05-13T10:55:34.029Z,17.10
2023-05-13T10:58:00.350Z,16.88
2023-05-13T11:00:26.647Z,17.11
2023-05-13T11:02:53.082Z,17.05
2023-05-13T11:05:19.478Z,17.41
2023-05-13T11:07:45.827Z,17.68
2023-05-13T11:10:12.134Z,17.41
2023-05-13T11:12:38.459Z,17.18
2023-05-13T11:15:04.752Z,17.32
2023-05-13T11:17:31.071Z,17.20
2023-05-13T11:19:57.393Z,17.39
2023-05-13T11:22:23.716Z,17.67
2023-05-13T11:24:50.020Z,17.87
2023-05-13T11:27:16.341Z,18.34
2023-05-13T11:29:42.625Z,18.34
2023-05-13T11:32:08.918Z,18.82
2023-05-13T11:34:35.330Z,18.51
2023-05-13T11:37:01.622Z,17.91
2023-05-13T11:39:27.933Z,17.82
2023-05-13T11:41:54.361Z,17.75
2023-05-13T11:44:20.674Z,17.95
2023-05-13T11:46:47.001Z,17.87
2023-05-13T11:49:13.358Z,17.89
2023-05-13T11:51:39.666Z,17.99
2023-05-13T11:54:05.994Z,17.94
2023-05-13T11:56:32.309Z,17.48
2023-05-13T11:58:58.864Z,17.79
2023-05-13T12:01:25.151Z,17.95
2023-05-13T12:03:51.472Z,17.57
2023-05-13T12:06:17.944Z,17.11
2023-05-13T12:08:44.232Z,17.06
2023-05-13T12:11:10.533Z,16.59
2023-05-13T12:13:36.911Z,16.86
2023-05-13T12:16:03.258Z,16.72
2023-05-13T12:18:29.627Z,16.61
2023-05-13T12:20:55.940Z,16.44
2023-05-13T12:23:22.237Z,16.63
2023-05-13T12:25:48.567Z,16.58
2023-05-13T12:28:14.853Z,16.35
2023-05-13T12:30:41.368Z,16.31
2023-05-13T12:33:07.760Z,16.48
2023-05-13T12:35:34.054Z,16.23
2023-05-13T12:38:00.656Z,16.09
2023-05-13T12:40:27.014Z,16.26
2023-05-13T12:42:53.354Z,16.07
2023-05-13T12:45:19.800Z,16.36
2023-05-13T12:47:46.380Z,16.28
2023-05-13T12:50:12.717Z,16.02
2023-05-13T12:52:39.014Z,16.19
2023-05-13T12:55:05.355Z,16.23
2023-05-13T12:57:32.378Z,16.07
2023-05-13T12:59:58.831Z,15.93
2023-05-13T13:02:25.212Z,15.86
2023-05-13T13:04:51.570Z,15.97
2023-05-13T13:07:17.858Z,15.97
2023-05-13T13:09:44.162Z,15.86
2023-05-13T13:12:10.471Z,16.01
2023-05-13T13:14:36.768Z,16.15
2023-05-13T13:17:03.064Z,16.04
2023-05-13T13:19:29.360Z,16.12
2023-05-13T13:21:55.649Z,16.20
2023-05-13T13:24:21.970Z,16.17
2023-05-13T13:26:48.262Z,16.12
2023-05-13T13:29:14.560Z,16.14
2023-05-13T13:31:40.905Z,16.24
2023-05-13T13:34:07.233Z,16.09
2023-05-13T13:36:33.525Z,16.28
2023-05-13T13:38:59.851Z,16.57
2023-05-13T13:41:26.153Z,16.17
2023-05-13T13:43:52.465Z,16.17
2023-05-13T13:46:18.817Z,16.18
2023-05-13T13:48:45.118Z,16.04
2023-05-13T13:51:11.403Z,16.31
2023-05-13T13:53:37.715Z,16.36
2023-05-13T13:56:03.998Z,16.05
2023-05-13T13:58:30.287Z,16.16
2023-05-13T14:00:56.747Z,16.11
2023-05-13T14:03:23.250Z,15.85
2023-05-13T14:05:49.588Z,15.67
2023-05-13T14:08:15.887Z,16.07
2023-05-13T14:10:42.180Z,16.07
2023-05-13T14:13:08.475Z,16.01
2023-05-13T14:15:34.921Z,16.04
2023-05-13T14:18:01.300Z,16.19
2023-05-13T14:20:27.612Z,16.34
2023-05-13T14:22:53.928Z,16.54
2023-05-13T14:25:20.222Z,16.40
2023-05-13T14:27:46.507Z,16.40
2023-05-13T14:30:12.838Z,16.40
2023-05-13T14:32:39.164Z,16.60
2023-05-13T14:35:05.473Z,16.19
2023-05-13T14:37:31.785Z,16.36
2023-05-13T14:39:58.063Z,16.21
2023-05-13T14:42:24.334Z,16.43
2023-05-13T14:44:50.632Z,16.49
2023-05-13T14:47:16.911Z,16.34
2023-05-13T14:49:43.214Z,16.25
2023-05-13T14:52:09.518Z,16.48
2023-05-13T14:54:36.008Z,16.25
2023-05-13T14:57:02.360Z,16.11
2023-05-13T14:59:28.670Z,16.31
2023-05-13T15:01:55.051Z,16.17
2023-05-13T15:04:21.346Z,16.33
2023-05-13T15:06:47.709Z,16.33
2023-05-13T15:09:13.997Z,16.61
2023-05-13T15:11:41.101Z,16.50
2023-05-13T15:14:08.457Z,16.47
2023-05-13T15:16:34.783Z,16.55
2023-05-13T15:19:01.172Z,16.73
2023-05-13T15:21:27.529Z,16.66
2023-05-13T15:23:53.808Z,16.72
2023-05-13T15:26:20.136Z,16.79
2023-05-13T15:28:46.521Z,16.69
2023-05-13T15:31:12.901Z,16.81
2023-05-13T15:33:39.193Z,16.95
2023-05-13T15:36:05.506Z,17.19
2023-05-13T15:38:31.801Z,17.06
2023-05-13T15:40:58.092Z,17.09
2023-05-13T15:43:24.405Z,17.08
2023-05-13T15:45:50.733Z,17.09
2023-05-13T15:48:17.200Z,17.00
2023-05-13T15:50:43.571Z,17.00
2023-05-13T15:53:09.880Z,16.95
2023-05-13T15:55:36.165Z,17.15
2023-05-13T15:58:02.590Z,16.86
2023-05-13T16:00:28.877Z,16.81
2023-05-13T16:02:55.175Z,16.95
2023-05-13T16:05:21.510Z,17.06
2023-05-13T16:07:47.815Z,16.89
2023-05-13T16:10:14.122Z,16.87
2023-05-13T16:12:40.487Z,16.77
2023-05-13T16:15:06.783Z,16.60
2023-05-13T16:17:33.095Z,15.69
2023-05-13T16:19:59.570Z,15.54
2023-05-13T16:22:25.897Z,15.35
2023-05-13T16:24:52.194Z,15.39
2023-05-13T16:27:18.553Z,15.28
2023-05-13T16:29:44.855Z,15.42
2023-05-13T16:32:11.156Z,15.55
2023-05-13T16:34:37.472Z,15.78
2023-05-13T16:37:03.774Z,15.77
2023-05-13T16:39:30.072Z,15.86
2023-05-13T16:41:56.392Z,16.02
2023-05-13T16:44:22.691Z,15.95
2023-05-13T16:46:48.986Z,15.72
2023-05-13T16:49:15.329Z,15.55
2023-05-13T16:51:41.646Z,16.23
2023-05-13T16:54:07.972Z,16.38
2023-05-13T16:56:34.307Z,15.84
2023-05-13T16:59:00.601Z,15.84
2023-05-13T17:01:26.910Z,15.99
2023-05-13T17:03:53.265Z,15.92
2023-05-13T17:06:19.554Z,15.55
2023-05-13T17:08:45.878Z,15.28
2023-05-13T17:11:12.184Z,15.37
2023-05-13T17:13:38.476Z,15.25
2023-05-13T17:16:04.770Z,15.09
2023-05-13T17:18:31.167Z,15.21
2023-05-13T17:20:57.489Z,15.35
2023-05-13T17:23:23.784Z,15.51
2023-05-13T17:25:50.114Z,15.82
2023-05-13T17:28:16.416Z,15.62
2023-05-13T17:30:42.977Z,15.70
2023-05-13T17:33:09.377Z,15.75
2023-05-13T17:35:35.725Z,15.81
2023-05-13T17:38:02.016Z,15.73
2023-05-13T17:40:28.399Z,15.55
2023-05-13T17:42:54.708Z,15.63
2023-05-13T17:45:21.084Z,15.57
2023-05-13T17:47:47.491Z,15.59
2023-05-13T17:50:13.823Z,15.60
2023-05-13T17:52:40.113Z,15.50
2023-05-13T17:55:06.434Z,15.74
2023-05-13T17:57:32.749Z,15.39
2023-05-13T17:59:59.053Z,15.61
2023-05-13T18:02:25.415Z,15.60
2023-05-13T18:04:51.780Z,15.54
2023-05-13T18:07:18.079Z,15.68
2023-05-13T18:09:44.393Z,15.66
2023-05-13T18:12:10.703Z,15.48
2023-05-13T18:14:37.016Z,15.51
2023-05-13T18:17:03.349Z,15.35
2023-05-13T18:19:29.646Z,15.42
2023-05-13T18:21:55.948Z,15.34
2023-05-13T18:24:22.325Z,15.41
2023-05-13T18:26:48.636Z,15.36
2023-05-13T18:29:14.946Z,15.34
2023-05-13T18:31:41.328Z,15.05
2023-05-13T18:34:07.676Z,15.13
2023-05-13T18:36:33.994Z,14.74
2023-05-13T18:39:00.369Z,14.76
2023-05-13T18:41:26.662Z,15.17
2023-05-13T18:43:52.977Z,14.79
2023-05-13T18:46:19.352Z,14.74
2023-05-13T18:48:45.685Z,15.18
2023-05-13T18:51:12.003Z,14.99
2023-05-13T18:53:38.321Z,14.79
2023-05-13T18:56:04.631Z,14.96
2023-05-13T18:58:30.929Z,14.90
2023-05-13T19:00:57.304Z,15.09
2023-05-13T19:03:23.740Z,15.07
2023-05-13T19:05:50.075Z,15.08
2023-05-13T19:08:16.491Z,15.07
2023-05-13T19:10:42.784Z,15.18
2023-05-13T19:13:09.081Z,15.16
2023-05-13T19:15:35.407Z,15.07
2023-05-13T19:18:01.791Z,15.23
2023-05-13T19:20:28.129Z,15.32
2023-05-13T19:22:54.457Z,15.05
2023-05-13T19:25:20.770Z,14.97
2023-05-13T19:27:47.095Z,14.99
2023-05-13T19:30:13.452Z,15.25
2023-05-13T19:32:39.794Z,15.09
2023-05-13T19:35:06.095Z,14.87
2023-05-13T19:37:32.425Z,14.83
2023-05-13T19:39:58.713Z,14.82
2023-05-13T19:42:25.026Z,14.86
2023-05-13T19:44:51.365Z,14.41
2023-05-13T19:47:17.682Z,14.63
2023-05-13T19:49:43.993Z,14.85
2023-05-13T19:52:10.324Z,14.66
2023-05-13T19:54:36.633Z,14.75
2023-05-13T19:57:02.949Z,14.65
2023-05-13T19:59:29.274Z,14.43
2023-05-13T20:01:55.610Z,14.51
2023-05-13T20:04:21.913Z,14.43
2023-05-13T20:06:48.226Z,14.65
2023-05-13T20:09:14.528Z,14.61
2023-05-13T20:11:40.830Z,14.62
2023-05-13T20:14:07.159Z,14.31
2023-05-13T20:16:33.464Z,14.41
2023-05-13T20:18:59.795Z,14.54
2023-05-13T20:21:26.130Z,14.50
2023-05-13T20:23:52.441Z,14.50
2023-05-13T20:26:18.824Z,14.41
2023-05-13T20:28:45.259Z,14.38
2023-05-13T20:31:11.600Z,14.33
2023-05-13T20:33:37.919Z,14.44
2023-05-13T20:36:04.294Z,14.48
2023-05-13T20:38:30.599Z,14.52
2023-05-13T20:40:56.894Z,14.67
2023-05-13T20:43:23.211Z,14.63
2023-05-13T20:45:49.590Z,14.42
2023-05-13T20:48:15.978Z,14.39
2023-05-13T20:50:42.293Z,14.30
2023-05-13T20:53:08.591Z,14.32
2023-05-13T20:55:34.885Z,14.28
2023-05-13T20:58:01.212Z,14.21
2023-05-13T21:00:27.528Z,14.20
2023-05-13T21:02:53.890Z,14.24
2023-05-13T21:05:20.401Z,14.22
2023-05-13T21:07:46.855Z,14.12
2023-05-13T21:10:13.153Z,14.16
2023-05-13T21:12:39.476Z,13.84
2023-05-13T21:15:05.756Z,14.04
2023-05-13T21:17:32.081Z,13.98
2023-05-13T21:19:58.434Z,14.18
2023-05-13T21:22:24.730Z,14.20
2023-05-13T21:24:51.025Z,14.39
2023-05-13T21:27:17.335Z,14.33
2023-05-13T21:29:43.639Z,14.47
2023-05-13T21:32:09.941Z,14.29
2023-05-13T21:34:36.249Z,14.39
2023-05-13T21:37:02.557Z,14.02
2023-05-13T21:39:28.900Z,14.24
2023-05-13T21:41:55.232Z,14.13
2023-05-13T21:44:21.522Z,14.19
2023-05-13T21:46:47.806Z,14.19
2023-05-13T21:49:14.172Z,14.17
2023-05-13T21:51:40.558Z,14.05
2023-05-13T21:54:06.874Z,14.42
2023-05-13T21:56:33.211Z,14.24
2023-05-13T21:58:59.537Z,14.30
2023-05-13T22:01:25.906Z,14.20
2023-05-13T22:03:52.299Z,14.10
2023-05-13T22:06:18.605Z,14.22
2023-05-13T22:08:46.034Z,14.02
2023-05-13T22:11:12.356Z,14.12
2023-05-13T22:13:38.641Z,14.23
2023-05-13T22:16:04.985Z,14.33
2023-05-13T22:18:31.595Z,14.16
2023-05-13T22:20:58.084Z,14.48
2023-05-13T22:23:27.117Z,14.32
2023-05-13T22:25:53.454Z,14.32
2023-05-13T22:28:19.773Z,14.26
2023-05-13T22:30:46.065Z,14.15
2023-05-13T22:33:12.450Z,14.00
2023-05-13T22:35:38.815Z,14.18
2023-05-13T22:38:06.574Z,13.96
2023-05-13T22:40:32.909Z,13.95
2023-05-13T22:42:59.223Z,14.14
2023-05-13T22:45:25.532Z,13.99
2023-05-13T22:47:51.961Z,13.94
2023-05-13T22:50:18.289Z,14.22
2023-05-13T22:52:44.600Z,13.74
2023-05-13T22:55:10.938Z,13.85
2023-05-13T22:57:37.236Z,13.89
2023-05-13T23:00:03.538Z,14.07
2023-05-13T23:02:29.900Z,13.93
2023-05-13T23:04:56.198Z,14.05
2023-05-13T23:07:22.499Z,13.86
2023-05-13T23:09:48.815Z,14.02
2023-05-13T23:12:15.116Z,13.77
2023-05-13T23:14:41.419Z,13.98
2023-05-13T23:17:07.744Z,14.18
2023-05-13T23:19:34.073Z,14.05
2023-05-13T23:22:00.373Z,13.87
2023-05-13T23:24:26.689Z,14.04
2023-05-13T23:26:52.991Z,13.97
2023-05-13T23:29:19.308Z,13.97
2023-05-13T23:31:45.693Z,13.87
2023-05-13T23:34:12.027Z,13.75
2023-05-13T23:36:38.321Z,13.69
2023-05-13T23:39:07.379Z,13.93
2023-05-13T23:41:33.688Z,13.84
2023-05-13T23:43:59.981Z,13.95
2023-05-13T23:46:26.502Z,13.78
2023-05-13T23:48:52.992Z,13.99
2023-05-13T23:51:19.292Z,13.96
2023-05-13T23:53:45.647Z,13.79
2023-05-13T23:56:11.958Z,14.02
2023-05-13T23:58:38.269Z,13.88
